createdAt,value
2019-02-21T00:00:49.916Z,12.67
2019-02-21T00:03:20.252Z,11.77
2019-02-21T00:05:50.564Z,12.23
2019-02-21T00:08:20.974Z,14.33
2019-02-21T00:10:51.410Z,12.60
2019-02-21T00:13:22.044Z,13.57
2019-02-21T00:15:52.637Z,12.57
2019-02-21T00:18:23.027Z,12.80
2019-02-21T00:20:53.738Z,13.80
2019-02-21T00:23:23.979Z,13.53
2019-02-21T00:25:55.793Z,12.70
2019-02-21T00:28:27.255Z,14.57
2019-02-21T00:30:57.700Z,13.40
2019-02-21T00:33:28.182Z,14.13
2019-02-21T00:35:58.826Z,14.07
2019-02-21T00:38:31.657Z,14.20
2019-02-21T00:41:01.889Z,13.30
2019-02-21T00:43:32.571Z,13.80
2019-02-21T00:46:02.833Z,12.70
2019-02-21T00:48:32.948Z,13.70
2019-02-21T00:51:06.529Z,13.27
2019-02-21T00:53:36.776Z,12.87
2019-02-21T00:56:07.323Z,13.57
2019-02-21T00:58:37.545Z,13.77
2019-02-21T01:01:08.360Z,13.40
2019-02-21T01:03:38.737Z,13.07
2019-02-21T01:06:08.936Z,12.30
2019-02-21T01:08:39.044Z,13.30
2019-02-21T01:11:09.848Z,14.20
2019-02-21T01:13:40.886Z,14.10
2019-02-21T01:16:11.117Z,14.03
2019-02-21T01:18:42.033Z,14.13
2019-02-21T01:21:12.320Z,12.63
2019-02-21T01:23:42.577Z,13.70
2019-02-21T01:26:13.168Z,13.20
2019-02-21T01:28:44.209Z,13.40
2019-02-21T01:31:14.490Z,12.60
2019-02-21T01:33:44.716Z,14.20
2019-02-21T01:36:14.899Z,13.07
2019-02-21T01:38:45.004Z,13.37
2019-02-21T01:41:15.574Z,14.53
2019-02-21T01:43:46.196Z,13.20
2019-02-21T01:46:16.394Z,12.83
2019-02-21T01:48:46.799Z,14.37
2019-02-21T01:51:19.335Z,13.23
2019-02-21T01:53:49.768Z,13.47
2019-02-21T01:56:19.796Z,14.80
2019-02-21T01:58:49.847Z,13.00
2019-02-21T02:01:20.659Z,14.10
2019-02-21T02:03:51.136Z,13.90
2019-02-21T02:06:21.284Z,13.87
2019-02-21T02:08:52.201Z,13.90
2019-02-21T02:11:22.494Z,14.23
2019-02-21T02:13:52.631Z,15.23
2019-02-21T02:16:23.090Z,14.93
2019-02-21T02:18:54.178Z,14.47
2019-02-21T02:21:24.444Z,13.70
2019-02-21T02:23:54.662Z,13.30
2019-02-21T02:26:25.146Z,14.30
2019-02-21T02:28:55.370Z,14.57
2019-02-21T02:31:25.817Z,13.53
2019-02-21T02:33:56.433Z,14.23
2019-02-21T02:36:26.795Z,14.37
2019-02-21T02:38:57.353Z,14.57
2019-02-21T02:41:27.460Z,16.30
2019-02-21T02:43:59.201Z,13.77
2019-02-21T02:46:29.565Z,14.53
2019-02-21T02:49:00.118Z,14.57
2019-02-21T02:51:30.516Z,14.80
2019-02-21T02:54:01.013Z,14.30
2019-02-21T02:56:31.270Z,13.60
2019-02-21T02:59:02.173Z,14.00
2019-02-21T03:01:35.066Z,14.50
2019-02-21T03:04:04.483Z,14.77
2019-02-21T03:06:35.247Z,14.00
2019-02-21T03:09:08.335Z,14.73
2019-02-21T03:11:38.585Z,13.70
2019-02-21T03:14:09.622Z,13.50
2019-02-21T03:16:40.449Z,14.30
2019-02-21T03:19:11.140Z,14.80
2019-02-21T03:21:41.379Z,15.13
2019-02-21T03:24:11.857Z,14.20
2019-02-21T03:26:42.326Z,14.60
2019-02-21T03:29:13.805Z,14.60
2019-02-21T03:31:54.819Z,15.03
2019-02-21T03:34:16.542Z,14.93
2019-02-21T03:36:47.078Z,15.20
2019-02-21T03:39:17.360Z,14.10
2019-02-21T03:41:48.045Z,14.97
2019-02-21T03:44:18.910Z,15.17
2019-02-21T03:46:49.491Z,15.63
2019-02-21T03:49:19.813Z,14.50
2019-02-21T03:51:50.145Z,15.50
2019-02-21T03:54:21.320Z,14.47
2019-02-21T03:56:51.807Z,14.60
2019-02-21T03:59:22.884Z,15.70
2019-02-21T04:02:04.508Z,14.70
2019-02-21T04:04:25.169Z,15.90
2019-02-21T04:06:55.431Z,15.97
2019-02-21T04:09:25.912Z,16.07
2019-02-21T04:11:56.163Z,15.47
2019-02-21T04:14:27.075Z,14.73
2019-02-21T04:16:57.914Z,15.73
2019-02-21T04:19:28.242Z,16.10
2019-02-21T04:21:58.939Z,17.23
2019-02-21T04:24:29.681Z,15.67
2019-02-21T04:27:00.371Z,15.17
2019-02-21T04:29:33.609Z,16.57
2019-02-21T04:32:03.956Z,16.37
2019-02-21T04:34:34.739Z,16.10
2019-02-21T04:37:05.398Z,15.57
2019-02-21T04:39:35.689Z,16.07
2019-02-21T04:42:06.341Z,16.47
2019-02-21T04:44:36.846Z,17.33
2019-02-21T04:47:07.319Z,16.77
2019-02-21T04:49:37.950Z,16.23
2019-02-21T04:52:08.329Z,17.90
2019-02-21T04:54:38.709Z,15.70
2019-02-21T04:57:09.005Z,17.13
2019-02-21T04:59:40.448Z,16.13
2019-02-21T05:02:13.377Z,17.13
2019-02-21T05:04:44.386Z,16.50
2019-02-21T05:07:15.750Z,16.73
2019-02-21T05:09:57.619Z,17.40
2019-02-21T05:12:20.267Z,17.07
2019-02-21T05:14:51.388Z,17.20
2019-02-21T05:17:23.149Z,17.20
2019-02-21T05:19:53.690Z,18.67
2019-02-21T05:22:23.863Z,18.10
2019-02-21T05:24:54.515Z,18.87
2019-02-21T05:27:29.369Z,18.30
2019-02-21T05:29:59.685Z,18.90
2019-02-21T05:32:48.400Z,17.63
2019-02-21T05:35:36.518Z,18.27
2019-02-21T05:38:24.659Z,18.30
2019-02-21T05:41:05.825Z,18.43
2019-02-21T05:43:58.519Z,18.37
2019-02-21T05:46:49.009Z,16.53
2019-02-21T05:49:44.604Z,17.60
2019-02-21T05:52:40.334Z,18.37
2019-02-21T05:55:23.400Z,18.40
2019-02-21T05:58:12.744Z,18.83
2019-02-21T06:01:10.984Z,18.33
2019-02-21T06:03:49.684Z,17.60
2019-02-21T06:06:45.804Z,18.20
2019-02-21T06:09:27.839Z,18.80
2019-02-21T06:12:11.798Z,17.97
2019-02-21T06:15:00.557Z,18.40
2019-02-21T06:17:54.404Z,18.47
2019-02-21T06:20:53.426Z,19.83
2019-02-21T06:23:44.361Z,18.63
2019-02-21T06:26:39.501Z,21.07
2019-02-21T06:29:41.412Z,19.47
2019-02-21T06:32:14.547Z,22.00
2019-02-21T06:34:44.374Z,20.10
2019-02-21T06:37:17.728Z,20.80
2019-02-21T06:39:47.941Z,21.63
2019-02-21T06:42:18.222Z,22.23
2019-02-21T06:44:48.892Z,21.43
2019-02-21T06:47:19.102Z,23.93
2019-02-21T06:49:52.084Z,22.50
2019-02-21T06:52:22.548Z,23.20
2019-02-21T06:54:52.673Z,23.80
2019-02-21T06:57:36.933Z,23.13
2019-02-21T07:00:05.305Z,22.37
2019-02-21T07:02:38.956Z,22.47
2019-02-21T07:05:11.947Z,24.50
2019-02-21T07:07:42.299Z,24.03
2019-02-21T07:10:15.547Z,22.27
2019-02-21T07:12:46.999Z,23.20
2019-02-21T07:15:17.361Z,23.30
2019-02-21T07:17:49.492Z,22.70
2019-02-21T07:20:20.483Z,24.77
2019-02-21T07:22:50.873Z,22.83
2019-02-21T07:25:34.665Z,24.90
2019-02-21T07:28:11.707Z,22.67
2019-02-21T07:30:37.130Z,23.03
2019-02-21T07:33:07.925Z,24.80
2019-02-21T07:35:38.326Z,22.67
2019-02-21T07:38:10.477Z,23.93
2019-02-21T07:40:41.080Z,23.13
2019-02-21T07:43:12.855Z,23.77
2019-02-21T07:45:43.769Z,23.20
2019-02-21T07:48:13.991Z,23.60
2019-02-21T07:50:44.156Z,23.40
2019-02-21T07:53:14.861Z,23.10
2019-02-21T07:55:45.104Z,22.90
2019-02-21T07:58:15.428Z,22.57
2019-02-21T08:00:49.030Z,21.40
2019-02-21T08:03:29.781Z,22.30
2019-02-21T08:05:51.357Z,22.83
2019-02-21T08:08:22.157Z,23.67
2019-02-21T08:10:52.513Z,22.67
2019-02-21T08:13:22.887Z,24.30
2019-02-21T08:15:53.678Z,21.70
2019-02-21T08:18:23.976Z,22.70
2019-02-21T08:20:54.376Z,23.03
2019-02-21T08:23:25.557Z,21.67
2019-02-21T08:25:55.954Z,21.93
2019-02-21T08:28:28.081Z,21.53
2019-02-21T08:30:58.882Z,23.17
2019-02-21T08:33:58.391Z,23.57
2019-02-21T08:36:26.069Z,21.40
2019-02-21T08:38:56.983Z,20.07
2019-02-21T08:41:27.234Z,20.70
2019-02-21T08:44:00.169Z,20.67
2019-02-21T08:46:30.330Z,19.47
2019-02-21T08:49:00.791Z,20.40
2019-02-21T08:51:31.197Z,20.10
2019-02-21T08:54:01.843Z,19.83
2019-02-21T08:56:32.002Z,20.30
2019-02-21T08:59:02.267Z,21.30
2019-02-21T09:01:34.378Z,20.90
2019-02-21T09:04:13.340Z,20.63
2019-02-21T09:06:36.935Z,21.00
2019-02-21T09:09:08.165Z,21.50
2019-02-21T09:11:38.515Z,21.17
2019-02-21T09:14:11.968Z,20.67
2019-02-21T09:16:42.802Z,22.53
2019-02-21T09:19:13.311Z,20.37
2019-02-21T09:21:44.562Z,23.03
2019-02-21T09:24:26.857Z,21.80
2019-02-21T09:26:46.571Z,22.33
2019-02-21T09:29:17.129Z,22.13
2019-02-21T09:31:47.416Z,22.73
2019-02-21T09:34:21.513Z,21.83
2019-02-21T09:36:51.460Z,20.80
2019-02-21T09:39:21.841Z,22.53
2019-02-21T09:41:52.031Z,20.80
2019-02-21T09:44:22.342Z,23.30
2019-02-21T09:46:52.749Z,22.30
2019-02-21T09:49:23.564Z,22.10
2019-02-21T09:51:54.263Z,22.77
2019-02-21T09:54:24.755Z,23.37
2019-02-21T09:57:12.252Z,22.40
2019-02-21T09:59:28.818Z,23.20
2019-02-21T10:01:59.146Z,23.43
2019-02-21T10:04:32.455Z,22.40
2019-02-21T10:07:03.811Z,22.50
2019-02-21T10:09:34.209Z,22.73
2019-02-21T10:12:04.955Z,21.60
2019-02-21T10:14:35.289Z,21.87
2019-02-21T10:17:05.517Z,23.33
2019-02-21T10:19:40.306Z,21.90
2019-02-21T10:22:13.401Z,22.93
2019-02-21T10:24:44.030Z,23.20
2019-02-21T10:27:14.062Z,23.03
2019-02-21T10:29:44.297Z,22.73
2019-02-21T10:32:15.100Z,22.10
2019-02-21T10:34:48.310Z,21.90
2019-02-21T10:37:18.840Z,20.43
2019-02-21T10:39:51.027Z,22.00
2019-02-21T10:42:21.265Z,21.67
2019-02-21T10:44:53.413Z,22.37
2019-02-21T10:47:24.241Z,20.20
2019-02-21T10:49:55.000Z,21.60
2019-02-21T10:52:25.524Z,20.90
2019-02-21T10:54:55.992Z,21.10
2019-02-21T10:57:35.243Z,20.97
2019-02-21T11:00:10.449Z,20.43
2019-02-21T11:02:41.965Z,20.67
2019-02-21T11:05:14.185Z,20.97
2019-02-21T11:07:45.848Z,21.00
2019-02-21T11:10:19.201Z,21.17
2019-02-21T11:12:49.663Z,20.07
2019-02-21T11:15:20.275Z,19.53
2019-02-21T11:17:50.920Z,21.80
2019-02-21T11:20:21.289Z,20.20
2019-02-21T11:22:51.789Z,20.20
2019-02-21T11:25:22.060Z,21.17
2019-02-21T11:27:52.571Z,19.87
2019-02-21T11:30:23.505Z,20.70
2019-02-21T11:32:54.213Z,21.33
2019-02-21T11:35:24.716Z,20.93
2019-02-21T11:37:56.533Z,21.40
2019-02-21T11:40:27.093Z,21.50
2019-02-21T11:42:57.610Z,20.70
2019-02-21T11:45:28.071Z,20.60
2019-02-21T11:48:00.305Z,21.50
2019-02-21T11:50:31.151Z,20.57
2019-02-21T11:53:02.158Z,19.67
2019-02-21T11:55:32.856Z,18.73
2019-02-21T11:58:03.683Z,20.10
2019-02-21T12:00:35.821Z,18.97
2019-02-21T12:03:06.163Z,17.97
2019-02-21T12:05:36.660Z,18.77
2019-02-21T12:08:10.030Z,17.63
2019-02-21T12:10:41.101Z,18.87
2019-02-21T12:13:11.554Z,17.10
2019-02-21T12:15:43.425Z,17.33
2019-02-21T12:18:14.645Z,16.70
2019-02-21T12:20:45.011Z,16.30
2019-02-21T12:23:17.689Z,16.37
2019-02-21T12:25:47.249Z,16.40
2019-02-21T12:28:17.527Z,16.27
2019-02-21T12:30:47.835Z,13.50
2019-02-21T12:33:19.341Z,14.60
2019-02-21T12:35:50.104Z,12.60
2019-02-21T12:38:23.700Z,13.97
2019-02-21T12:40:54.274Z,13.30
2019-02-21T12:43:25.899Z,14.00
2019-02-21T12:46:01.442Z,13.87
2019-02-21T12:48:32.005Z,14.93
2019-02-21T12:51:02.329Z,14.83
2019-02-21T12:53:37.645Z,14.67
2019-02-21T12:56:08.300Z,15.23
2019-02-21T12:58:41.369Z,15.33
2019-02-21T13:01:16.007Z,15.80
2019-02-21T13:03:46.394Z,16.07
2019-02-21T13:06:16.913Z,17.07
2019-02-21T13:08:49.980Z,16.10
2019-02-21T13:11:22.987Z,15.60
2019-02-21T13:13:54.513Z,16.63
2019-02-21T13:16:26.965Z,16.60
2019-02-21T13:18:59.019Z,16.57
2019-02-21T13:21:29.335Z,17.27
2019-02-21T13:24:02.708Z,16.40
2019-02-21T13:26:35.175Z,17.20
2019-02-21T13:29:05.510Z,17.27
2019-02-21T13:31:35.546Z,18.93
2019-02-21T13:34:05.945Z,18.43
2019-02-21T13:36:37.794Z,16.87
2019-02-21T13:39:09.413Z,17.27
2019-02-21T13:41:39.660Z,16.93
2019-02-21T13:44:10.106Z,15.93
2019-02-21T13:46:41.748Z,17.97
2019-02-21T13:49:13.555Z,19.80
2019-02-21T13:51:54.443Z,19.40
2019-02-21T13:54:24.976Z,18.07
2019-02-21T13:56:58.011Z,18.03
2019-02-21T13:59:31.587Z,19.00
2019-02-21T14:02:19.929Z,18.80
2019-02-21T14:04:52.227Z,18.63
2019-02-21T14:07:23.841Z,17.93
2019-02-21T14:09:54.180Z,18.47
2019-02-21T14:12:26.477Z,18.43
2019-02-21T14:14:58.062Z,18.83
2019-02-21T14:17:28.968Z,19.13
2019-02-21T14:20:01.138Z,20.20
2019-02-21T14:22:31.602Z,20.03
2019-02-21T14:25:02.052Z,20.30
2019-02-21T14:27:35.162Z,19.37
2019-02-21T14:30:06.685Z,21.70
2019-02-21T14:32:37.925Z,20.27
2019-02-21T14:35:14.030Z,19.80
2019-02-21T14:37:43.911Z,18.90
2019-02-21T14:40:14.389Z,18.53
2019-02-21T14:42:44.819Z,19.40
2019-02-21T14:45:17.500Z,18.90
2019-02-21T14:47:51.135Z,19.50
2019-02-21T14:50:21.873Z,18.80
2019-02-21T14:52:58.480Z,17.53
2019-02-21T14:55:30.161Z,19.00
2019-02-21T14:58:00.987Z,18.43
2019-02-21T15:00:31.374Z,16.43
2019-02-21T15:03:01.896Z,17.23
2019-02-21T15:05:32.574Z,17.87
2019-02-21T15:08:02.709Z,16.30
2019-02-21T15:10:33.672Z,16.40
2019-02-21T15:13:04.380Z,15.43
2019-02-21T15:15:34.953Z,17.00
2019-02-21T15:18:11.237Z,15.10
2019-02-21T15:20:40.375Z,15.70
2019-02-21T15:23:11.065Z,15.33
2019-02-21T15:25:45.379Z,14.97
2019-02-21T15:28:21.317Z,14.23
2019-02-21T15:30:51.908Z,15.00
2019-02-21T15:33:22.122Z,14.30
2019-02-21T15:35:56.427Z,13.97
2019-02-21T15:38:26.915Z,14.00
2019-02-21T15:40:58.283Z,14.37
2019-02-21T15:43:29.285Z,15.00
2019-02-21T15:45:59.425Z,14.67
2019-02-21T15:48:29.768Z,15.00
2019-02-21T15:51:00.298Z,13.83
2019-02-21T15:53:30.848Z,14.90
2019-02-21T15:56:01.214Z,14.70
2019-02-21T15:58:31.877Z,15.27
2019-02-21T16:01:02.400Z,14.87
2019-02-21T16:03:32.780Z,15.73
2019-02-21T16:06:03.596Z,13.87
2019-02-21T16:08:33.890Z,14.90
2019-02-21T16:11:04.488Z,14.90
2019-02-21T16:13:35.428Z,15.67
2019-02-21T16:16:05.953Z,15.07
2019-02-21T16:18:36.833Z,15.97
2019-02-21T16:21:11.355Z,16.90
2019-02-21T16:23:42.013Z,16.17
2019-02-21T16:26:12.716Z,16.53
2019-02-21T16:28:43.113Z,15.87
2019-02-21T16:31:15.605Z,16.50
2019-02-21T16:33:47.744Z,15.70
2019-02-21T16:36:18.293Z,15.50
2019-02-21T16:38:48.520Z,15.13
2019-02-21T16:41:21.017Z,16.67
2019-02-21T16:43:53.722Z,15.77
2019-02-21T16:46:30.314Z,16.27
2019-02-21T16:49:00.559Z,15.60
2019-02-21T16:51:30.957Z,15.00
2019-02-21T16:54:01.335Z,15.90
2019-02-21T16:56:31.488Z,16.67
2019-02-21T16:59:02.101Z,16.10
2019-02-21T17:01:35.525Z,16.20
2019-02-21T17:04:09.080Z,15.60
2019-02-21T17:06:42.889Z,16.93
2019-02-21T17:09:13.349Z,16.70
2019-02-21T17:11:47.188Z,16.80
2019-02-21T17:14:18.266Z,16.33
2019-02-21T17:16:50.708Z,16.17
2019-02-21T17:19:22.340Z,16.93
2019-02-21T17:21:52.715Z,16.47
2019-02-21T17:24:25.005Z,17.00
2019-02-21T17:27:01.052Z,17.57
2019-02-21T17:29:33.271Z,17.70
2019-02-21T17:32:04.146Z,16.80
2019-02-21T17:34:34.447Z,16.80
2019-02-21T17:37:05.388Z,18.07
2019-02-21T17:39:36.140Z,16.60
2019-02-21T17:42:06.529Z,17.60
2019-02-21T17:44:37.081Z,16.70
2019-02-21T17:47:10.429Z,19.20
2019-02-21T17:49:40.899Z,18.60
2019-02-21T17:52:11.392Z,19.27
2019-02-21T17:54:42.149Z,20.00
2019-02-21T17:57:20.049Z,19.30
2019-02-21T17:59:54.266Z,19.07
2019-02-21T18:02:24.849Z,19.80
2019-02-21T18:04:55.324Z,22.20
2019-02-21T18:07:36.161Z,24.67
2019-02-21T18:09:59.137Z,22.47
2019-02-21T18:12:29.843Z,23.10
2019-02-21T18:15:00.216Z,21.97
2019-02-21T18:17:30.870Z,22.20
2019-02-21T18:20:01.199Z,22.30
2019-02-21T18:22:33.481Z,23.93
2019-02-21T18:25:04.205Z,21.60
2019-02-21T18:27:34.853Z,23.40
2019-02-21T18:30:05.404Z,23.07
2019-02-21T18:32:35.930Z,25.27
2019-02-21T18:35:06.446Z,25.67
2019-02-21T18:37:46.682Z,25.10
2019-02-21T18:40:17.281Z,25.30
2019-02-21T18:42:44.823Z,26.53
2019-02-21T18:45:15.680Z,27.53
2019-02-21T18:47:46.271Z,26.60
2019-02-21T18:50:16.941Z,26.90
2019-02-21T18:52:47.544Z,26.97
2019-02-21T18:55:18.300Z,26.27
2019-02-21T18:57:52.796Z,26.30
2019-02-21T19:00:28.728Z,28.13
2019-02-21T19:02:58.807Z,26.23
2019-02-21T19:05:36.262Z,27.27
2019-02-21T19:08:07.044Z,26.87
2019-02-21T19:10:38.651Z,29.73
2019-02-21T19:13:12.098Z,28.00
2019-02-21T19:15:45.756Z,28.00
2019-02-21T19:18:19.640Z,28.77
2019-02-21T19:20:50.538Z,29.00
2019-02-21T19:23:21.159Z,28.07
2019-02-21T19:25:51.633Z,34.57
2019-02-21T19:28:21.930Z,31.50
2019-02-21T19:30:56.969Z,30.30
2019-02-21T19:33:30.472Z,32.60
2019-02-21T19:36:04.163Z,32.80
2019-02-21T19:38:35.069Z,31.30
2019-02-21T19:41:07.828Z,32.00
2019-02-21T19:43:38.622Z,33.73
2019-02-21T19:46:13.835Z,31.53
2019-02-21T19:49:00.766Z,29.37
2019-02-21T19:51:31.678Z,31.00
2019-02-21T19:54:02.148Z,28.57
2019-02-21T19:56:32.545Z,28.77
2019-02-21T19:59:03.798Z,31.50
2019-02-21T20:01:36.044Z,30.40
2019-02-21T20:04:07.048Z,29.47
2019-02-21T20:06:37.597Z,29.97
2019-02-21T20:09:12.298Z,29.97
2019-02-21T20:11:42.902Z,29.30
2019-02-21T20:14:15.581Z,29.80
2019-02-21T20:16:47.959Z,28.00
2019-02-21T20:19:18.205Z,30.30
2019-02-21T20:21:48.536Z,25.87
2019-02-21T20:24:21.454Z,28.13
2019-02-21T20:26:53.313Z,24.50
2019-02-21T20:29:23.585Z,24.10
2019-02-21T20:31:54.644Z,24.67
2019-02-21T20:34:25.325Z,24.80
2019-02-21T20:36:56.120Z,22.10
2019-02-21T20:39:26.838Z,22.90
2019-02-21T20:41:57.721Z,24.47
2019-02-21T20:44:28.157Z,22.57
2019-02-21T20:46:58.840Z,23.80
2019-02-21T20:49:31.625Z,22.07
2019-02-21T20:52:12.604Z,22.97
2019-02-21T20:54:42.950Z,21.90
2019-02-21T20:57:13.332Z,26.37
2019-02-21T20:59:45.225Z,22.60
2019-02-21T21:02:15.533Z,20.97
2019-02-21T21:04:45.895Z,22.10
2019-02-21T21:07:24.828Z,20.40
2019-02-21T21:09:50.766Z,24.73
2019-02-21T21:12:21.972Z,25.90
2019-02-21T21:14:52.159Z,20.13
2019-02-21T21:17:22.489Z,18.90
2019-02-21T21:19:52.962Z,20.80
2019-02-21T21:22:24.709Z,21.27
2019-02-21T21:24:56.600Z,17.27
2019-02-21T21:27:28.244Z,18.93
2019-02-21T21:29:58.459Z,16.77
2019-02-21T21:32:28.873Z,18.90
2019-02-21T21:34:59.305Z,17.20
2019-02-21T21:37:29.762Z,16.60
2019-02-21T21:40:04.974Z,16.20
2019-02-21T21:42:35.180Z,19.43
2019-02-21T21:45:09.462Z,17.50
2019-02-21T21:47:41.513Z,16.27
2019-02-21T21:50:14.168Z,18.30
2019-02-21T21:52:47.926Z,19.53
2019-02-21T21:55:18.323Z,17.83
2019-02-21T21:57:49.756Z,19.97
2019-02-21T22:00:21.909Z,17.70
2019-02-21T22:02:52.240Z,21.23
2019-02-21T22:05:22.851Z,19.00
2019-02-21T22:07:53.129Z,19.53
2019-02-21T22:10:23.412Z,19.60
2019-02-21T22:12:53.954Z,19.17
2019-02-21T22:15:24.958Z,22.97
2019-02-21T22:17:55.625Z,17.97
2019-02-21T22:20:26.139Z,23.90
2019-02-21T22:22:56.461Z,19.30
2019-02-21T22:25:26.967Z,19.07
2019-02-21T22:27:57.401Z,17.67
2019-02-21T22:30:28.105Z,20.63
2019-02-21T22:32:58.373Z,20.00
2019-02-21T22:35:28.881Z,19.03
2019-02-21T22:38:01.616Z,18.67
2019-02-21T22:40:32.233Z,18.17
2019-02-21T22:43:04.466Z,19.00
2019-02-21T22:45:34.862Z,19.70
2019-02-21T22:48:05.561Z,18.63
2019-02-21T22:50:37.894Z,20.70
2019-02-21T22:53:08.256Z,19.57
2019-02-21T22:55:39.151Z,19.37
2019-02-21T22:58:12.812Z,18.00
2019-02-21T23:01:00.698Z,19.63
2019-02-21T23:03:38.186Z,18.33
2019-02-21T23:06:47.534Z,16.60
2019-02-21T23:09:27.570Z,17.70
2019-02-21T23:11:57.916Z,17.47
2019-02-21T23:14:30.079Z,18.20
2019-02-21T23:17:00.742Z,16.97
2019-02-21T23:19:31.591Z,17.40
2019-02-21T23:22:02.331Z,18.60
2019-02-21T23:24:35.831Z,17.90
2019-02-21T23:27:06.413Z,18.37
2019-02-21T23:29:36.820Z,16.93
2019-02-21T23:32:06.991Z,18.23
2019-02-21T23:34:39.810Z,19.67
2019-02-21T23:37:10.066Z,19.10
2019-02-21T23:39:40.862Z,19.67
2019-02-21T23:42:11.634Z,20.53
2019-02-21T23:44:43.842Z,18.87
2019-02-21T23:47:16.390Z,19.90
2019-02-21T23:49:46.674Z,19.97
2019-02-21T23:52:21.399Z,22.10
2019-02-21T23:54:53.970Z,19.80
2019-02-21T23:57:29.125Z,18.27
2019-02-21T23:59:59.757Z,19.20
